Time;durP1;ratioP1;P1;durP2;ratioP2;P2;SDS_P1;SDS_P2;PMS_P1;PMS_P2;Temp;Humidity;BMP_temperature;BMP_pressure;BME280_temperature;BME280_humidity;BME280_pressure;Samples;Min_cycle;Max_cycle;Signal;HPM_P1;HPM_P2
2021/05/23 00:01:11;;;;;;;4.60;3.30;;;;;;;10.96;81.23;95651.25;1791703;79;21097;-63
2021/05/23 00:03:38;;;;;;;3.80;3.40;;;;;;;11.02;80.85;95649.37;1792192;80;21061;-62
2021/05/23 00:06:05;;;;;;;5.03;3.23;;;;;;;11.04;80.42;95646.27;1792093;80;21024;-61
2021/05/23 00:08:32;;;;;;;6.53;2.50;;;;;;;11.03;80.59;95647.14;1791987;80;21545;-61
2021/05/23 00:11:07;;;;;;;2.53;2.20;;;;;;;10.91;80.27;95647.83;1792237;80;21084;-62
2021/05/23 00:13:38;;;;;;;3.97;2.10;;;;;;;10.81;79.76;95651.13;1792028;79;21076;-61
2021/05/23 00:16:15;;;;;;;8.63;4.73;;;;;;;10.72;80.04;95645.55;1792294;80;21040;-61
2021/05/23 00:18:46;;;;;;;15.63;7.47;;;;;;;10.57;81.34;95645.37;1791941;80;21119;-61
2021/05/23 00:21:16;;;;;;;5.90;2.97;;;;;;;10.55;82.05;95642.34;1792122;80;21031;-61
2021/05/23 00:23:43;;;;;;;3.67;2.20;;;;;;;10.51;81.20;95649.91;1792160;80;21017;-62
2021/05/23 00:26:10;;;;;;;3.70;2.10;;;;;;;10.50;81.43;95652.10;1792180;80;21151;-61
2021/05/23 00:28:36;;;;;;;2.93;2.20;;;;;;;10.46;82.03;95649.98;1763509;80;21028;-61
2021/05/23 00:31:04;;;;;;;3.50;2.10;;;;;;;10.52;82.18;95655.13;1792213;80;21071;-61
2021/05/23 00:33:31;;;;;;;2.47;2.00;;;;;;;10.55;82.14;95651.57;1792179;80;21063;-61
2021/05/23 00:35:58;;;;;;;5.73;1.97;;;;;;;10.53;81.44;95647.66;1791897;80;21047;-62
2021/05/23 00:38:25;;;;;;;2.63;1.90;;;;;;;10.57;81.28;95653.74;1792367;80;21060;-61
2021/05/23 00:40:52;;;;;;;4.77;1.83;;;;;;;10.67;81.14;95654.00;1792235;80;21159;-62
2021/05/23 00:43:21;;;;;;;3.13;2.43;;;;;;;10.70;80.68;95664.48;1791954;80;21068;-61
2021/05/23 00:45:49;;;;;;;2.67;2.00;;;;;;;10.66;81.66;95661.92;1792334;80;21155;-61
2021/05/23 00:48:21;;;;;;;3.60;2.07;;;;;;;10.68;81.45;95664.09;1791963;80;21051;-62
2021/05/23 00:50:47;;;;;;;3.57;2.40;;;;;;;10.66;81.83;95665.88;1792226;79;21044;-61
2021/05/23 00:53:15;;;;;;;5.70;2.57;;;;;;;10.71;81.95;95664.03;1792176;79;21083;-61
2021/05/23 00:55:42;;;;;;;3.47;1.90;;;;;;;10.64;81.94;95658.47;1792078;80;21168;-61
2021/05/23 00:58:09;;;;;;;3.10;2.80;;;;;;;10.55;81.87;95662.98;1792346;79;21079;-62
2021/05/23 01:00:48;;;;;;;14.20;6.67;;;;;;;10.46;82.46;95656.57;1792320;80;21588;-61
2021/05/23 01:03:35;;;;;;;7.10;5.00;;;;;;;10.43;82.91;95656.59;1792215;80;21008;-62
2021/05/23 01:06:06;;;;;;;6.57;4.93;;;;;;;10.48;83.16;95647.30;1792090;80;21043;-61
2021/05/23 01:08:36;;;;;;;5.43;3.23;;;;;;;10.42;83.33;95653.55;1792222;80;21029;-61
2021/05/23 01:11:07;;;;;;;2.50;2.30;;;;;;;10.40;82.79;95657.98;1792092;80;21040;-62
2021/05/23 01:14:00;;;;;;;3.17;2.13;;;;;;;10.38;82.95;95657.13;1792088;80;21071;-62
2021/05/23 01:16:38;;;;;;;2.15;1.92;;;;;;;10.37;82.06;95655.40;1792078;80;21060;-62
2021/05/23 01:19:22;;;;;;;2.23;1.97;;;;;;;10.43;81.97;95655.28;1792326;80;21156;-62
2021/05/23 01:21:53;;;;;;;;;;;;;;;10.49;81.75;95647.73;1782198;80;21009;-62
2021/05/23 01:24:37;;;;;;;3.17;2.80;;;;;;;10.47;82.90;95651.70;1791878;80;20198;-61
2021/05/23 01:27:07;;;;;;;3.73;2.93;;;;;;;10.40;83.62;95647.42;1792096;79;21633;-62
2021/05/23 01:29:34;;;;;;;2.57;2.23;;;;;;;10.35;83.36;95656.73;1792185;80;21149;-62
2021/05/23 01:32:01;;;;;;;2.50;2.17;;;;;;;10.36;82.96;95660.27;1791981;80;21640;-61
2021/05/23 01:34:28;;;;;;;4.53;2.60;;;;;;;10.42;82.78;95656.64;1792134;80;21064;-62
2021/05/23 01:36:59;;;;;;;2.87;2.33;;;;;;;10.43;83.42;95656.59;1792075;80;21096;-61
2021/05/23 01:39:26;;;;;;;2.77;2.20;;;;;;;10.43;83.19;95657.05;1792120;79;21143;-62
2021/05/23 01:41:53;;;;;;;5.87;2.83;;;;;;;10.40;84.06;95661.94;1792078;80;21028;-62
2021/05/23 01:44:20;;;;;;;4.37;2.03;;;;;;;10.48;84.00;95661.80;1792298;80;21592;-61
2021/05/23 01:46:48;;;;;;;4.47;2.00;;;;;;;10.52;83.73;95663.05;1763397;80;21047;-63
2021/05/23 01:49:14;;;;;;;6.37;3.80;;;;;;;10.52;83.53;95656.91;1792162;79;21051;-62
2021/05/23 01:51:41;;;;;;;5.17;3.30;;;;;;;10.55;83.79;95658.17;1791986;80;21029;-62
2021/05/23 01:54:08;;;;;;;4.30;3.00;;;;;;;10.56;83.26;95661.25;1792225;80;21044;-62
2021/05/23 01:56:35;;;;;;;3.87;2.60;;;;;;;10.61;83.52;95662.03;1792153;79;21013;-61
2021/05/23 01:59:02;;;;;;;2.60;2.10;;;;;;;10.65;83.80;95666.80;1792030;80;21166;-62
2021/05/23 02:01:28;;;;;;;3.47;2.80;;;;;;;10.61;83.69;95676.09;1792156;80;21080;-61
2021/05/23 02:03:59;;;;;;;5.50;4.27;;;;;;;10.59;83.62;95680.52;1791989;80;21640;-61
2021/05/23 02:06:26;;;;;;;6.20;3.77;;;;;;;10.69;83.74;95680.37;1791940;80;21479;-61
2021/05/23 02:08:53;;;;;;;5.73;3.43;;;;;;;10.72;83.62;95673.25;1792204;80;21108;-61
2021/05/23 02:11:20;;;;;;;2.53;1.80;;;;;;;10.76;83.49;95676.27;1792147;79;21012;-61
2021/05/23 02:13:53;;;;;;;1.60;1.50;;;;;;;10.75;83.32;95672.33;1792002;80;21601;-62
2021/05/23 02:16:20;;;;;;;2.65;1.90;;;;;;;10.74;82.90;95676.74;1792422;80;21597;-62
2021/05/23 02:18:47;;;;;;;3.20;1.60;;;;;;;10.70;83.24;95676.81;1792052;80;21123;-61
2021/05/23 02:21:14;;;;;;;2.17;1.53;;;;;;;10.73;82.83;95682.03;1792021;80;21024;-61
2021/05/23 02:23:56;;;;;;;2.00;1.57;;;;;;;10.76;82.67;95685.94;1792146;79;21116;-61
2021/05/23 02:26:23;;;;;;;2.00;1.80;;;;;;;10.87;83.05;95689.27;1792177;80;21045;-61
2021/05/23 02:28:51;;;;;;;2.60;2.03;;;;;;;10.85;82.89;95679.18;1791900;80;21083;-61
2021/05/23 02:31:17;;;;;;;3.30;2.67;;;;;;;10.88;83.30;95681.76;1792301;79;21043;-61
2021/05/23 02:33:44;;;;;;;2.03;1.77;;;;;;;10.99;83.04;95694.33;1791872;80;21119;-62
2021/05/23 02:36:11;;;;;;;4.87;3.20;;;;;;;10.99;82.74;95694.78;1791260;80;21520;-61
2021/05/23 02:38:38;;;;;;;3.27;2.90;;;;;;;10.97;83.07;95690.84;1791835;80;21147;-61
2021/05/23 02:41:05;;;;;;;3.87;2.37;;;;;;;11.08;82.73;95699.00;1791938;80;21600;-61
2021/05/23 02:43:31;;;;;;;6.17;1.90;;;;;;;11.01;82.32;95696.92;1792087;80;21597;-62
2021/05/23 02:46:02;;;;;;;4.67;3.30;;;;;;;10.97;82.90;95713.73;1792341;79;21116;-62
2021/05/23 02:48:27;;;;;;;5.30;3.73;;;;;;;11.03;82.77;95703.05;1791521;80;21123;-61
2021/05/23 02:50:55;;;;;;;5.43;3.30;;;;;;;11.10;82.47;95711.73;1792248;79;21040;-61
2021/05/23 02:53:22;;;;;;;5.50;3.10;;;;;;;11.16;82.11;95705.90;1792242;80;21542;-61
2021/05/23 02:55:50;;;;;;;8.83;3.50;;;;;;;11.15;82.04;95703.27;1791940;79;21515;-61
2021/05/23 02:58:17;;;;;;;5.10;3.47;;;;;;;11.20;81.90;95704.92;1792102;80;21072;-61
2021/05/23 03:00:46;;;;;;;6.90;4.00;;;;;;;11.21;81.65;95707.11;1792076;79;21091;-61
2021/05/23 03:03:14;;;;;;;6.20;4.23;;;;;;;11.11;82.31;95704.22;1791746;80;21020;-61
2021/05/23 03:05:42;;;;;;;9.40;4.90;;;;;;;11.15;82.22;95696.67;1792214;80;21032;-61
2021/05/23 03:08:10;;;;;;;6.53;4.93;;;;;;;11.16;81.95;95703.26;1763392;80;21559;-62
2021/05/23 03:10:45;;;;;;;7.47;3.60;;;;;;;11.14;82.24;95698.45;1792087;79;21064;-61
2021/05/23 03:13:12;;;;;;;4.53;2.90;;;;;;;11.21;81.84;95698.76;1791164;80;21043;-61
2021/05/23 03:15:40;;;;;;;4.50;2.83;;;;;;;11.24;81.64;95692.55;1792138;80;21039;-61
2021/05/23 03:18:07;;;;;;;3.00;2.70;;;;;;;11.17;81.70;95696.20;1791974;80;21012;-61
2021/05/23 03:20:36;;;;;;;4.03;2.93;;;;;;;11.15;82.51;95696.22;1792112;79;21009;-61
2021/05/23 03:23:03;;;;;;;3.77;3.20;;;;;;;11.13;82.26;95697.14;1792023;80;21150;-62
2021/05/23 03:25:31;;;;;;;6.50;4.27;;;;;;;11.10;82.53;95713.92;1792009;80;21640;-62
2021/05/23 03:27:58;;;;;;;6.10;4.73;;;;;;;11.10;82.88;95705.13;1763670;80;21076;-61
2021/05/23 03:30:36;;;;;;;9.37;6.37;;;;;;;11.10;83.35;95706.45;1791944;80;21613;-61
2021/05/23 03:33:05;;;;;;;9.70;5.53;;;;;;;11.03;83.14;95721.08;1792018;79;21554;-61
2021/05/23 03:35:33;;;;;;;9.70;5.97;;;;;;;10.99;83.27;95722.50;1792029;79;20992;-61
2021/05/23 03:38:01;;;;;;;6.30;5.27;;;;;;;11.11;83.31;95730.63;1790044;80;21087;-61
2021/05/23 03:40:30;;;;;;;6.97;5.30;;;;;;;11.27;83.00;95726.81;1786525;80;21036;-62
2021/05/23 03:42:56;;;;;;;6.30;4.33;;;;;;;11.44;82.68;95724.72;1786666;80;21040;-61
2021/05/23 03:45:25;;;;;;;6.87;4.83;;;;;;;11.50;82.18;95724.17;1786613;80;21020;-61
2021/05/23 03:47:52;;;;;;;5.03;4.53;;;;;;;11.54;82.08;95718.80;1786578;80;21052;-62
2021/05/23 03:50:22;;;;;;;6.63;4.70;;;;;;;11.61;81.98;95718.20;1786678;80;21578;-61
2021/05/23 03:52:52;;;;;;;5.60;4.60;;;;;;;11.59;81.99;95724.86;1786250;80;21673;-62
2021/05/23 03:55:20;;;;;;;5.20;4.63;;;;;;;11.55;81.95;95717.89;1786656;80;21581;-61
2021/05/23 03:57:48;;;;;;;5.27;4.00;;;;;;;11.60;81.95;95716.48;1786749;80;21048;-61
2021/05/23 04:00:17;;;;;;;7.67;4.63;;;;;;;11.61;81.73;95710.28;1786708;80;21045;-61
2021/05/23 04:02:48;;;;;;;4.83;3.00;;;;;;;11.63;81.82;95713.77;1786579;80;21064;-62
2021/05/23 04:05:16;;;;;;;6.90;3.70;;;;;;;11.56;82.43;95721.39;1786420;80;21056;-61
2021/05/23 04:07:42;;;;;;;4.37;3.40;;;;;;;11.61;81.84;95730.09;1786583;80;21048;-61
2021/05/23 04:10:13;;;;;;;3.50;3.03;;;;;;;11.55;82.64;95727.14;1786798;80;21084;-61
2021/05/23 04:12:43;;;;;;;5.00;3.37;;;;;;;11.48;82.30;95727.70;1786205;80;21048;-61
2021/05/23 04:15:09;;;;;;;4.93;3.37;;;;;;;11.50;82.40;95732.10;1786474;80;21033;-61
2021/05/23 04:17:37;;;;;;;4.97;3.70;;;;;;;11.54;83.33;95735.08;1786853;80;21032;-61
2021/05/23 04:20:08;;;;;;;4.30;3.90;;;;;;;11.53;83.43;95738.18;1786428;80;21037;-61
2021/05/23 04:22:35;;;;;;;4.97;4.27;;;;;;;11.58;83.63;95736.31;1786610;80;21588;-61
2021/05/23 04:25:06;;;;;;;5.67;4.27;;;;;;;11.63;83.57;95734.45;1786574;80;21697;-61
2021/05/23 04:27:32;;;;;;;4.70;3.77;;;;;;;11.67;83.13;95726.02;1786603;80;21518;-61
2021/05/23 04:29:59;;;;;;;4.37;3.47;;;;;;;11.72;82.76;95725.91;1786632;80;21068;-61
2021/05/23 04:32:27;;;;;;;4.10;3.70;;;;;;;11.74;82.49;95732.90;1786670;80;21167;-61
2021/05/23 04:34:53;;;;;;;4.20;3.37;;;;;;;11.81;82.48;95731.88;1786450;80;21096;-61
2021/05/23 04:37:20;;;;;;;4.10;3.70;;;;;;;11.91;82.76;95730.80;1786707;80;21558;-62
2021/05/23 04:39:47;;;;;;;3.27;2.97;;;;;;;12.01;82.84;95730.61;1789535;80;21593;-62
2021/05/23 04:42:14;;;;;;;6.07;2.70;;;;;;;12.14;82.61;95728.11;1789573;80;21594;-61
2021/05/23 04:44:40;;;;;;;3.03;2.50;;;;;;;12.16;81.79;95727.63;1789689;80;21068;-61
2021/05/23 04:47:07;;;;;;;3.33;2.87;;;;;;;12.19;81.54;95725.36;1789627;80;21080;-62
2021/05/23 04:49:38;;;;;;;6.43;3.17;;;;;;;12.19;81.97;95723.58;1789572;80;21132;-61
2021/05/23 04:52:03;;;;;;;4.37;2.67;;;;;;;12.27;81.82;95724.30;1789285;80;21040;-61
2021/05/23 04:54:29;;;;;;;2.97;2.67;;;;;;;12.34;81.76;95711.77;1789354;80;21076;-62
2021/05/23 04:56:56;;;;;;;3.17;2.63;;;;;;;12.44;81.81;95714.62;1789641;80;21574;-62
2021/05/23 04:59:22;;;;;;;3.57;2.80;;;;;;;12.51;81.78;95710.92;1789689;80;21155;-61
2021/05/23 05:01:49;;;;;;;2.83;2.60;;;;;;;12.65;81.78;95711.03;1789725;80;21041;-61
2021/05/23 05:04:15;;;;;;;8.27;2.80;;;;;;;12.76;81.89;95710.32;1789546;80;21044;-62
2021/05/23 05:06:42;;;;;;;4.93;3.10;;;;;;;12.90;81.90;95710.85;1789724;80;21530;-61
2021/05/23 05:09:09;;;;;;;5.30;2.23;;;;;;;13.02;81.38;95710.10;1789591;80;21049;-62
2021/05/23 05:11:35;;;;;;;5.77;3.37;;;;;;;13.03;80.71;95720.67;1789695;80;21646;-61
2021/05/23 05:14:03;;;;;;;20.43;7.87;;;;;;;13.04;80.38;95716.23;1789689;80;21052;-61
2021/05/23 05:16:30;;;;;;;13.50;8.63;;;;;;;13.16;80.39;95709.29;1789327;80;21076;-61
2021/05/23 05:18:58;;;;;;;12.70;8.97;;;;;;;13.41;80.37;95720.98;1789584;80;21569;-61
2021/05/23 05:21:24;;;;;;;9.23;5.00;;;;;;;13.51;79.18;95720.74;1789718;80;21048;-61
2021/05/23 05:23:51;;;;;;;8.23;4.77;;;;;;;13.62;77.96;95731.90;1789691;80;21024;-61
2021/05/23 05:26:17;;;;;;;7.50;4.50;;;;;;;13.60;78.26;95731.93;1789829;80;21124;-61
2021/05/23 05:28:44;;;;;;;7.63;5.10;;;;;;;13.73;78.81;95729.80;1789598;80;21044;-61
2021/05/23 05:31:10;;;;;;;5.00;4.03;;;;;;;13.82;79.05;95725.56;1789710;80;21147;-62
2021/05/23 05:33:37;;;;;;;4.17;2.80;;;;;;;13.93;78.96;95724.38;1789495;80;21064;-61
2021/05/23 05:36:05;;;;;;;2.87;1.90;;;;;;;14.01;77.58;95726.34;1789486;80;21065;-63
2021/05/23 05:38:32;;;;;;;6.53;4.80;;;;;;;13.99;74.59;95723.75;1788701;80;21040;-62
2021/05/23 05:40:59;;;;;;;7.13;3.83;;;;;;;13.99;75.41;95731.71;1786571;80;21159;-61
2021/05/23 05:43:26;;;;;;;4.07;3.27;;;;;;;14.03;75.75;95725.37;1786468;80;21048;-61
2021/05/23 05:45:52;;;;;;;5.53;3.33;;;;;;;14.03;75.97;95724.05;1786635;80;21036;-61
2021/05/23 05:48:19;;;;;;;5.47;3.40;;;;;;;14.03;76.11;95725.84;1786735;80;21123;-61
2021/05/23 05:50:47;;;;;;;4.23;2.67;;;;;;;14.05;76.75;95728.00;1786616;80;21056;-61
2021/05/23 05:53:13;;;;;;;3.73;2.50;;;;;;;14.06;77.38;95729.72;1786542;80;21566;-61
2021/05/23 05:55:40;;;;;;;4.63;1.90;;;;;;;14.06;76.75;95729.72;1786701;80;21092;-63
2021/05/23 05:58:07;;;;;;;2.30;2.10;;;;;;;14.09;76.48;95727.47;1786508;80;21614;-61
2021/05/23 06:00:34;;;;;;;4.67;3.47;;;;;;;14.09;75.78;95724.34;1786826;80;21037;-61
2021/05/23 06:03:02;;;;;;;3.63;2.70;;;;;;;14.03;75.76;95732.47;1786597;80;21061;-62
2021/05/23 06:05:30;;;;;;;5.20;2.97;;;;;;;13.98;76.44;95730.41;1786413;80;21636;-61
2021/05/23 06:07:56;;;;;;;3.63;3.17;;;;;;;13.95;76.67;95722.09;1786759;80;21029;-61
2021/05/23 06:10:24;;;;;;;3.30;3.00;;;;;;;13.96;77.71;95725.61;1786625;80;21136;-61
2021/05/23 06:12:51;;;;;;;5.57;3.90;;;;;;;13.94;76.19;95719.50;1786526;80;21589;-61
2021/05/23 06:15:18;;;;;;;3.93;3.53;;;;;;;14.01;76.70;95720.59;1786564;80;21028;-61
2021/05/23 06:17:44;;;;;;;7.17;6.07;;;;;;;14.17;76.94;95714.36;1786670;80;21025;-62
2021/05/23 06:20:13;;;;;;;6.63;5.27;;;;;;;14.32;76.68;95713.48;1755909;80;21585;-61
2021/05/23 06:22:40;;;;;;;5.23;3.83;;;;;;;14.44;75.79;95714.43;1786616;80;21024;-62
2021/05/23 06:25:09;;;;;;;4.37;3.00;;;;;;;14.52;75.83;95711.53;1786695;80;21044;-62
2021/05/23 06:27:36;;;;;;;3.30;2.90;;;;;;;14.68;75.94;95724.27;1786603;80;21056;-61
2021/05/23 06:30:06;;;;;;;2.67;2.10;;;;;;;14.78;74.96;95715.55;1786589;80;21075;-61
2021/05/23 06:32:33;;;;;;;2.77;2.00;;;;;;;14.85;73.58;95707.78;1786553;80;21040;-61
2021/05/23 06:34:59;;;;;;;3.37;2.00;;;;;;;14.94;72.42;95709.25;1786524;80;21029;-62
2021/05/23 06:37:26;;;;;;;3.47;2.13;;;;;;;15.01;72.64;95708.59;1786436;80;21139;-61
2021/05/23 06:39:53;;;;;;;2.27;2.08;;;;;;;15.16;73.36;95720.02;1786463;80;21040;-61
2021/05/23 06:42:20;;;;;;;3.10;1.80;;;;;;;15.16;70.81;95717.36;1786460;80;21558;-62
2021/05/23 06:44:47;;;;;;;3.95;2.37;;;;;;;15.22;69.91;95717.60;1786711;80;21037;-62
2021/05/23 06:47:13;;;;;;;4.70;2.52;;;;;;;15.34;70.31;95715.84;1786352;80;21036;-62
2021/05/23 06:49:41;;;;;;;4.08;3.05;;;;;;;15.38;68.33;95709.52;1786434;80;21641;-62
2021/05/23 06:52:08;;;;;;;3.08;1.92;;;;;;;15.49;68.30;95713.11;1786618;80;21045;-61
2021/05/23 06:54:35;;;;;;;3.08;2.00;;;;;;;15.54;66.09;95712.48;1786495;80;21049;-62
2021/05/23 06:57:02;;;;;;;3.27;2.10;;;;;;;15.68;63.58;95707.53;1786572;80;21546;-62
2021/05/23 06:59:28;;;;;;;2.92;1.87;;;;;;;15.74;65.09;95711.32;1786541;80;21028;-61
2021/05/23 07:01:55;;;;;;;2.98;2.62;;;;;;;15.94;64.41;95717.23;1786403;80;21036;-61
2021/05/23 07:04:21;;;;;;;2.30;2.10;;;;;;;15.93;65.09;95727.95;1786545;80;21064;-61
2021/05/23 07:06:48;;;;;;;5.60;2.47;;;;;;;15.83;63.89;95731.41;1756126;80;21582;-61
2021/05/23 07:09:16;;;;;;;4.33;2.08;;;;;;;15.77;64.70;95721.88;1786440;80;21064;-62
2021/05/23 07:11:43;;;;;;;3.50;2.85;;;;;;;15.66;64.31;95721.34;1786425;80;21577;-61
2021/05/23 07:14:09;;;;;;;8.88;5.20;;;;;;;15.62;64.97;95727.69;1786643;80;21147;-61
2021/05/23 07:16:36;;;;;;;11.50;7.60;;;;;;;15.55;64.92;95724.41;1786447;80;21538;-61
2021/05/23 07:19:03;;;;;;;5.87;3.10;;;;;;;15.52;65.14;95727.19;1786457;80;21068;-62
2021/05/23 07:21:30;;;;;;;2.52;1.82;;;;;;;15.45;64.96;95723.00;1786566;80;21032;-61
2021/05/23 07:23:56;;;;;;;3.90;2.27;;;;;;;15.47;64.53;95726.48;1786743;80;21148;-61
2021/05/23 07:26:23;;;;;;;4.20;2.17;;;;;;;15.49;64.37;95717.96;1786521;80;21072;-61
2021/05/23 07:28:51;;;;;;;3.22;1.77;;;;;;;15.59;65.23;95722.02;1786536;80;21453;-61
2021/05/23 07:31:17;;;;;;;3.15;2.00;;;;;;;15.70;64.53;95720.80;1786413;80;21045;-61
2021/05/23 07:33:44;;;;;;;2.27;2.08;;;;;;;15.89;64.78;95721.00;1786458;80;21060;-61
2021/05/23 07:36:12;;;;;;;2.02;1.82;;;;;;;16.00;63.09;95726.77;1786358;80;21059;-61
2021/05/23 07:38:40;;;;;;;2.47;1.70;;;;;;;16.09;63.42;95726.90;1756412;80;21056;-62
2021/05/23 07:41:07;;;;;;;2.92;1.80;;;;;;;16.16;61.81;95712.44;1786705;80;21021;-61
2021/05/23 07:43:33;;;;;;;2.00;1.70;;;;;;;16.18;62.17;95710.12;1786459;80;21132;-61
2021/05/23 07:46:00;;;;;;;2.60;1.50;;;;;;;16.13;62.31;95704.58;1786651;80;21040;-62
2021/05/23 07:48:26;;;;;;;3.45;1.82;;;;;;;16.17;64.03;95708.36;1786519;80;21048;-61
2021/05/23 07:50:53;;;;;;;2.25;1.55;;;;;;;16.27;63.61;95703.55;1786306;80;21032;-62
2021/05/23 07:53:20;;;;;;;1.92;1.70;;;;;;;16.55;63.22;95701.13;1786376;80;21057;-62
2021/05/23 07:55:47;;;;;;;2.60;1.55;;;;;;;16.77;63.24;95710.45;1786523;80;21548;-62
2021/05/23 07:58:13;;;;;;;2.25;1.80;;;;;;;16.78;62.07;95704.22;1786524;80;21105;-62
2021/05/23 08:00:40;;;;;;;3.55;1.72;;;;;;;16.93;60.88;95705.38;1786536;80;21361;-62
2021/05/23 08:03:07;;;;;;;5.08;2.08;;;;;;;17.00;60.85;95707.72;1786555;80;21052;-61
2021/05/23 08:05:33;;;;;;;2.80;1.50;;;;;;;17.12;61.61;95702.34;1786265;80;21060;-62
2021/05/23 08:08:00;;;;;;;3.20;1.98;;;;;;;17.20;60.88;95708.22;1786481;80;21112;-61
2021/05/23 08:10:27;;;;;;;2.10;1.85;;;;;;;17.24;59.55;95704.50;1786496;80;21032;-62
2021/05/23 08:12:54;;;;;;;1.70;1.60;;;;;;;17.32;60.49;95706.83;1756412;80;21557;-61
2021/05/23 08:15:21;;;;;;;2.27;1.60;;;;;;;17.38;60.30;95705.69;1786397;80;21163;-62
2021/05/23 08:17:50;;;;;;;3.05;2.10;;;;;;;17.51;60.60;95701.09;1786366;80;21585;-61
2021/05/23 08:20:16;;;;;;;2.30;1.70;;;;;;;17.68;59.73;95702.13;1786449;80;21547;-61
2021/05/23 08:22:43;;;;;;;2.45;1.32;;;;;;;17.79;60.10;95699.87;1786530;80;21064;-61
2021/05/23 08:25:10;;;;;;;1.60;1.50;;;;;;;17.89;59.17;95697.65;1786481;80;21048;-61
2021/05/23 08:27:37;;;;;;;2.20;1.75;;;;;;;17.89;60.95;95695.88;1786393;80;21044;-61
2021/05/23 08:30:05;;;;;;;3.98;1.62;;;;;;;18.00;61.15;95702.05;1786522;80;21048;-61
2021/05/23 08:32:32;;;;;;;5.42;1.57;;;;;;;18.16;59.66;95696.85;1786473;80;21051;-62
2021/05/23 08:34:59;;;;;;;1.60;1.50;;;;;;;18.41;60.21;95685.88;1786587;80;21052;-61
2021/05/23 08:37:26;;;;;;;1.72;1.55;;;;;;;18.47;59.91;95686.93;1786766;80;21040;-61
2021/05/23 08:39:52;;;;;;;3.92;1.75;;;;;;;18.59;60.16;95682.30;1786515;80;21048;-61
2021/05/23 08:42:19;;;;;;;2.20;1.47;;;;;;;18.82;59.92;95683.02;1786563;80;21055;-61
2021/05/23 08:44:45;;;;;;;2.25;1.45;;;;;;;19.10;59.68;95682.52;1786806;80;21036;-61
2021/05/23 08:47:14;;;;;;;2.70;1.70;;;;;;;19.24;56.36;95679.13;1786612;80;21068;-62
2021/05/23 08:49:40;;;;;;;2.30;1.42;;;;;;;19.46;57.86;95676.21;1786440;80;21055;-61
2021/05/23 08:52:07;;;;;;;4.58;1.52;;;;;;;19.65;58.18;95673.41;1786727;80;21029;-61
2021/05/23 08:54:40;;;;;;;1.70;1.42;;;;;;;19.81;58.32;95673.03;1786443;80;21092;-62
2021/05/23 08:57:02;;;;;;;2.33;1.25;;;;;;;19.90;53.90;95662.28;1785449;80;21143;-62
2021/05/23 08:59:28;;;;;;;1.75;1.40;;;;;;;19.89;54.14;95661.91;1786644;80;21586;-62
2021/05/23 09:02:07;;;;;;;2.40;1.82;;;;;;;19.70;54.50;95664.70;1786479;80;21064;-61
2021/05/23 09:04:34;;;;;;;1.98;1.57;;;;;;;19.83;56.74;95662.22;1786286;80;21024;-62
2021/05/23 09:07:04;;;;;;;2.92;1.45;;;;;;;20.05;58.00;95662.78;1786408;80;21072;-61
2021/05/23 09:09:44;;;;;;;1.52;1.30;;;;;;;20.37;55.12;95656.61;1786785;80;21076;-61
2021/05/23 09:12:13;;;;;;;2.55;1.55;;;;;;;20.66;53.19;95634.86;1786764;80;21158;-62
2021/05/23 09:14:44;;;;;;;1.98;1.50;;;;;;;20.66;53.19;95634.86;1786509;80;21064;-61
2021/05/23 09:17:26;;;;;;;1.40;1.20;;;;;;;20.74;52.23;95640.67;1786518;80;21056;-62
2021/05/23 09:19:55;;;;;;;2.07;1.40;;;;;;;20.74;53.08;95633.48;1786827;80;21032;-62
2021/05/23 09:22:26;;;;;;;1.75;1.37;;;;;;;21.04;53.00;95635.33;1786431;80;21079;-61
2021/05/23 09:25:03;;;;;;;2.20;1.62;;;;;;;21.26;52.81;95634.02;1786381;80;21017;-62
2021/05/23 09:27:33;;;;;;;1.95;1.52;;;;;;;21.58;52.46;95637.47;1786682;80;21033;-61
2021/05/23 09:30:21;;;;;;;3.37;1.50;;;;;;;21.63;49.27;95625.97;1786740;80;21079;-62
2021/05/23 09:32:49;;;;;;;2.35;1.17;;;;;;;21.62;50.78;95633.66;1786964;80;21001;-61
2021/05/23 09:35:16;;;;;;;1.80;1.50;;;;;;;21.84;51.10;95638.53;1786412;80;21135;-61
2021/05/23 09:37:45;;;;;;;2.77;1.10;;;;;;;22.02;49.87;95625.77;1786628;80;21025;-62
2021/05/23 09:40:24;;;;;;;2.67;1.37;;;;;;;22.23;51.53;95619.55;1787946;80;21673;-62
2021/05/23 09:42:54;;;;;;;2.90;1.40;;;;;;;22.51;51.51;95614.59;1789268;80;21072;-62
2021/05/23 09:45:24;;;;;;;3.12;1.35;;;;;;;22.53;49.46;95607.75;1789659;80;21044;-62
2021/05/23 09:47:57;;;;;;;3.05;1.30;;;;;;;22.51;48.23;95609.70;1789608;80;21047;-62
2021/05/23 09:50:38;;;;;;;6.33;1.47;;;;;;;22.38;49.61;95616.36;1789542;80;21029;-61
2021/05/23 09:53:29;;;;;;;1.62;1.30;;;;;;;22.27;46.77;95608.97;1789739;80;21048;-61
2021/05/23 09:56:11;;;;;;;2.87;1.32;;;;;;;22.37;48.66;95611.93;1789465;80;21045;-63
2021/05/23 09:58:47;;;;;;;3.02;1.20;;;;;;;22.65;49.90;95607.83;1789849;80;20996;-62
2021/05/23 10:01:30;;;;;;;1.30;1.20;;;;;;;22.66;47.13;95600.12;1789638;80;21024;-63
2021/05/23 10:04:00;;;;;;;5.50;1.60;;;;;;;22.65;46.75;95600.22;1789616;80;21044;-63
2021/05/23 10:06:33;;;;;;;4.33;1.50;;;;;;;22.88;47.15;95609.44;1789453;80;21024;-63
2021/05/23 10:09:01;;;;;;;1.20;1.10;;;;;;;23.10;46.39;95604.86;1789799;80;21541;-63
2021/05/23 10:11:28;;;;;;;1.75;1.25;;;;;;;23.14;45.40;95596.96;1789591;80;21069;-62
2021/05/23 10:13:54;;;;;;;3.30;1.50;;;;;;;23.39;46.51;95606.05;1789617;80;21080;-63
2021/05/23 10:16:22;;;;;;;2.45;1.10;;;;;;;23.45;43.03;95598.39;1789640;80;21566;-63
2021/05/23 10:18:50;;;;;;;1.95;1.30;;;;;;;23.61;45.68;95602.70;1789523;80;21048;-63
2021/05/23 10:21:17;;;;;;;3.65;1.40;;;;;;;23.84;45.06;95600.65;1789642;80;21139;-63
2021/05/23 10:23:54;;;;;;;2.00;1.42;;;;;;;23.97;43.94;95581.77;1789590;80;21549;-64
2021/05/23 10:26:25;;;;;;;2.40;1.50;;;;;;;24.01;44.36;95580.55;1789755;80;21091;-63
2021/05/23 10:28:54;;;;;;;2.22;1.40;;;;;;;24.12;43.64;95580.66;1789575;80;21020;-63
2021/05/23 10:31:32;;;;;;;1.40;1.10;;;;;;;23.94;43.06;95581.50;1789565;80;21067;-63
2021/05/23 10:33:59;;;;;;;4.55;1.40;;;;;;;24.07;46.02;95584.66;1789292;80;21562;-63
2021/05/23 10:36:41;;;;;;;1.42;1.32;;;;;;;24.09;44.80;95583.58;1789654;80;21159;-63
2021/05/23 10:39:12;;;;;;;1.82;1.25;;;;;;;23.95;46.85;95580.52;1789598;80;21044;-63
2021/05/23 10:41:40;;;;;;;1.40;1.30;;;;;;;23.92;43.84;95583.44;1786674;80;21041;-63
2021/05/23 10:44:11;;;;;;;1.47;1.22;;;;;;;23.58;43.00;95593.01;1786573;80;21040;-63
2021/05/23 10:46:50;;;;;;;1.90;1.40;;;;;;;23.46;44.62;95588.47;1786367;80;21020;-63
2021/05/23 10:49:17;;;;;;;3.30;1.42;;;;;;;23.29;46.83;95579.75;1786709;80;21048;-63
2021/05/23 10:51:56;;;;;;;2.00;1.47;;;;;;;23.23;45.52;95582.00;1786558;80;21123;-63
2021/05/23 10:54:24;;;;;;;5.67;1.40;;;;;;;22.90;44.79;95575.23;1786570;80;21127;-63
2021/05/23 10:57:03;;;;;;;1.45;1.35;;;;;;;22.72;45.53;95568.41;1786470;80;21148;-63
2021/05/23 10:59:31;;;;;;;2.17;1.30;;;;;;;22.42;46.49;95561.41;1786386;80;21044;-63
2021/05/23 11:01:59;;;;;;;2.35;1.55;;;;;;;22.28;47.74;95556.95;1786487;80;21482;-63
2021/05/23 11:04:39;;;;;;;2.37;1.30;;;;;;;22.36;46.47;95551.93;1786549;80;21072;-62
2021/05/23 11:07:10;;;;;;;3.15;1.60;;;;;;;22.56;48.74;95553.79;1786343;80;21032;-63
2021/05/23 11:09:38;;;;;;;3.57;1.50;;;;;;;22.86;45.47;95552.21;1786850;80;21116;-63
2021/05/23 11:12:13;;;;;;;1.50;1.30;;;;;;;23.16;44.64;95549.28;1786564;80;21020;-63
2021/05/23 11:14:40;;;;;;;2.80;1.20;;;;;;;23.50;46.31;95542.87;1786506;80;21027;-63
2021/05/23 11:17:10;;;;;;;2.15;1.37;;;;;;;23.91;46.30;95540.42;1786664;80;21036;-63
2021/05/23 11:19:37;;;;;;;1.35;1.15;;;;;;;24.22;43.23;95539.06;1786514;80;21036;-63
2021/05/23 11:22:04;;;;;;;1.50;1.40;;;;;;;23.74;43.61;95533.58;1786334;80;21589;-63
2021/05/23 11:24:36;;;;;;;2.47;1.30;;;;;;;23.36;43.05;95535.78;1786274;80;21072;-63
2021/05/23 11:27:18;;;;;;;2.20;1.42;;;;;;;23.16;45.02;95526.40;1786402;80;21596;-63
2021/05/23 11:29:48;;;;;;;3.08;1.65;;;;;;;22.96;45.47;95522.85;1786568;80;21024;-63
2021/05/23 11:32:16;;;;;;;2.33;1.30;;;;;;;22.68;46.00;95520.70;1786554;80;21056;-63
2021/05/23 11:34:44;;;;;;;1.72;1.00;;;;;;;22.51;44.68;95525.00;1786408;80;21581;-63
2021/05/23 11:37:11;;;;;;;1.50;1.20;;;;;;;22.31;47.05;95518.27;1786239;80;21092;-63
2021/05/23 11:39:38;;;;;;;3.47;1.50;;;;;;;22.10;46.63;95513.31;1786517;80;21076;-62
2021/05/23 11:42:06;;;;;;;1.77;1.40;;;;;;;22.01;45.30;95500.47;1791613;80;21072;-63